Terminal Aerodrome Forecast
Issued by NWS

Home | Current Version | Previous Version | Text Only | Print | Product List | Glossary On
Versions: 1 2 3 4 5 6 7 8 9 10 11 12 13 14
870
FTUS46 KHNX 232320
TAFFAT
TAF
KFAT 232320Z 2400/2424 26005KT P6SM BKN045
     FM240600 VRB04KT P6SM BKN200
     FM241800 13010KT P6SM OVC150
     FM242100 16010KT P6SM OVC100=

USA.gov is the U.S. government's official web portal to all federal, state and local government web resources and services.